Time;durP1;ratioP1;P1;durP2;ratioP2;P2;SDS_P1;SDS_P2;PMS_P1;PMS_P2;Temp;Humidity;BMP_temperature;BMP_pressure;BME280_temperature;BME280_humidity;BME280_pressure;Samples;Min_cycle;Max_cycle;Signal;HPM_P1;HPM_P2
2021/03/10 00:00:32;;;;;;;11.73;8.30;;;3.30;77.60;;;;;;5096322;28;20164;-68
2021/03/10 00:02:57;;;;;;;10.27;7.80;;;3.40;78.50;;;;;;5096154;28;20480;-67
2021/03/10 00:05:23;;;;;;;11.13;7.83;;;3.30;78.50;;;;;;5094911;28;20180;-67
2021/03/10 00:07:49;;;;;;;14.80;8.47;;;3.30;79.40;;;;;;5096009;28;20656;-66
2021/03/10 00:10:14;;;;;;;9.80;7.07;;;3.40;79.30;;;;;;5096677;28;20172;-68
2021/03/10 00:12:42;;;;;;;11.07;6.87;;;3.30;78.60;;;;;;5095980;28;20184;-67
2021/03/10 00:15:10;;;;;;;9.10;6.80;;;3.30;79.20;;;;;;5096541;28;20653;-67
2021/03/10 00:17:36;;;;;;;10.70;6.75;;;3.40;79.20;;;;;;5094556;28;20717;-68
2021/03/10 00:20:02;;;;;;;8.37;6.57;;;3.50;80.70;;;;;;5096396;28;20252;-66
2021/03/10 00:22:28;;;;;;;9.35;6.28;;;3.40;81.10;;;;;;5095790;28;20453;-68
2021/03/10 00:24:54;;;;;;;9.33;6.47;;;3.40;80.10;;;;;;5094701;28;20539;-66
2021/03/10 00:27:25;;;;;;;11.43;7.77;;;3.40;80.30;;;;;;5095805;28;20172;-67
2021/03/10 00:29:53;;;;;;;10.38;6.95;;;3.50;81.40;;;;;;5094495;28;20205;-66
2021/03/10 00:32:20;;;;;;;8.43;6.35;;;3.40;80.50;;;;;;5095745;28;20172;-67
2021/03/10 00:34:46;;;;;;;15.27;10.38;;;3.30;79.90;;;;;;5094417;28;20212;-66
2021/03/10 00:37:12;;;;;;;21.55;13.20;;;3.20;80.10;;;;;;5095758;28;20176;-67
2021/03/10 00:39:38;;;;;;;22.65;14.15;;;3.30;79.90;;;;;;5094399;28;20208;-66
2021/03/10 00:42:03;;;;;;;19.73;13.60;;;3.30;79.80;;;;;;5095417;28;20231;-67
2021/03/10 00:44:29;;;;;;;14.80;11.67;;;3.30;80.80;;;;;;5095563;28;20252;-66
2021/03/10 00:46:54;;;;;;;14.50;11.10;;;3.40;81.10;;;;;;5094224;28;20409;-68
2021/03/10 00:49:20;;;;;;;14.60;9.20;;;3.30;80.50;;;;;;5095586;28;20196;-66
2021/03/10 00:51:46;;;;;;;10.50;7.93;;;3.20;81.00;;;;;;5095273;28;20259;-67
2021/03/10 00:54:11;;;;;;;10.50;7.33;;;3.30;81.10;;;;;;5093977;28;20207;-66
2021/03/10 00:56:37;;;;;;;11.73;8.00;;;3.20;82.00;;;;;;5095244;28;20175;-68
2021/03/10 00:59:02;;;;;;;10.40;8.00;;;3.10;83.10;;;;;;5095247;28;20231;-66
2021/03/10 01:01:28;;;;;;;13.33;8.87;;;3.20;82.50;;;;;;5094461;28;20176;-68
2021/03/10 01:03:53;;;;;;;8.87;7.50;;;2.90;82.80;;;;;;5095085;28;20228;-67
2021/03/10 01:06:23;;;;;;;11.20;8.00;;;2.90;84.00;;;;;;5095089;28;20306;-67
2021/03/10 01:08:49;;;;;;;10.23;7.85;;;3.00;83.00;;;;;;5095100;28;20197;-67
2021/03/10 01:11:15;;;;;;;9.03;7.57;;;2.90;83.00;;;;;;5095003;28;20172;-66
2021/03/10 01:13:41;;;;;;;7.87;7.03;;;2.80;82.00;;;;;;5094897;28;20476;-67
2021/03/10 01:16:06;;;;;;;9.73;7.80;;;3.00;82.10;;;;;;5094859;28;20168;-67
2021/03/10 01:18:32;;;;;;;14.47;8.00;;;2.80;81.70;;;;;;5094766;28;20650;-66
2021/03/10 01:20:57;;;;;;;9.50;8.10;;;2.70;82.10;;;;;;5094836;28;20667;-66
2021/03/10 01:23:23;;;;;;;11.10;7.43;;;2.80;84.60;;;;;;5094739;28;20589;-66
2021/03/10 01:25:48;;;;;;;9.60;7.47;;;2.80;83.60;;;;;;5094714;28;20680;-67
2021/03/10 01:28:14;;;;;;;8.00;7.17;;;2.80;84.10;;;;;;5093366;28;20568;-66
2021/03/10 01:30:39;;;;;;;7.97;6.80;;;2.80;82.60;;;;;;5094498;28;20214;-68
2021/03/10 01:33:05;;;;;;;9.93;7.13;;;2.70;82.10;;;;;;5094428;28;20231;-66
2021/03/10 01:35:31;;;;;;;11.20;7.33;;;2.80;83.10;;;;;;5094596;28;20172;-66
2021/03/10 01:37:57;;;;;;;10.60;6.73;;;2.60;83.80;;;;;;5094477;28;20199;-66
2021/03/10 01:40:23;;;;;;;9.53;7.10;;;2.80;83.10;;;;;;5094645;28;20467;-67
2021/03/10 01:42:49;;;;;;;10.40;8.02;;;2.70;82.40;;;;;;5094266;28;20249;-68
2021/03/10 01:45:15;;;;;;;9.93;6.80;;;2.80;82.80;;;;;;5094348;28;20184;-66
2021/03/10 01:47:43;;;;;;;10.80;7.68;;;2.70;82.80;;;;;;5094261;28;20580;-66
2021/03/10 01:50:09;;;;;;;10.10;7.80;;;2.60;84.00;;;;;;5094748;28;20172;-68
2021/03/10 01:52:35;;;;;;;13.38;7.95;;;2.50;83.90;;;;;;5092931;28;20559;-66
2021/03/10 01:55:01;;;;;;;9.93;7.50;;;2.40;84.00;;;;;;5094716;28;20176;-66
2021/03/10 01:57:27;;;;;;;14.20;8.50;;;2.40;84.40;;;;;;5092799;28;20427;-67
2021/03/10 01:59:53;;;;;;;11.50;7.90;;;2.30;83.70;;;;;;5093951;28;20526;-67
2021/03/10 02:02:18;;;;;;;11.23;7.93;;;2.30;84.80;;;;;;5093997;28;20250;-66
2021/03/10 02:04:44;;;;;;;11.70;8.63;;;2.20;84.50;;;;;;5092849;28;20803;-67
2021/03/10 02:07:18;;;;;;;13.30;8.67;;;2.30;85.80;;;;;;5092791;28;20263;-68
2021/03/10 02:10:35;;;;;;;13.50;8.32;;;2.20;84.90;;;;;;5092790;28;20202;-67
2021/03/10 02:13:18;;;;;;;9.60;7.57;;;2.10;84.60;;;;;;5070686;28;20736;-69
2021/03/10 02:16:06;;;;;;;12.35;8.90;;;2.00;85.70;;;;;;5090649;28;20180;-67
2021/03/10 02:18:46;;;;;;;11.25;8.50;;;2.10;86.50;;;;;;5093954;28;20325;-67
2021/03/10 02:21:29;;;;;;;12.57;7.80;;;1.90;87.30;;;;;;5093975;28;20180;-66
2021/03/10 02:24:03;;;;;;;9.55;8.52;;;1.90;87.70;;;;;;5093901;28;20307;-66
2021/03/10 02:27:07;;;;;;;10.30;7.53;;;1.90;88.80;;;;;;5093801;28;20175;-68
2021/03/10 02:29:35;;;;;;;11.10;8.75;;;1.80;88.40;;;;;;5093979;28;20231;-66
2021/03/10 02:32:01;;;;;;;11.52;8.90;;;1.70;89.20;;;;;;5093752;28;20176;-66
2021/03/10 02:34:28;;;;;;;10.43;7.70;;;1.80;89.80;;;;;;5093937;28;20594;-68
2021/03/10 02:36:55;;;;;;;10.60;8.43;;;1.90;90.20;;;;;;5092449;28;20634;-66
2021/03/10 02:39:22;;;;;;;15.45;10.00;;;1.70;90.30;;;;;;5092189;28;20304;-66
2021/03/10 02:41:48;;;;;;;15.20;9.07;;;1.90;90.60;;;;;;5092427;28;20693;-66
2021/03/10 02:44:16;;;;;;;10.02;8.93;;;1.70;90.60;;;;;;5093779;28;20224;-67
2021/03/10 02:46:42;;;;;;;11.40;9.10;;;1.70;90.80;;;;;;5093578;28;20168;-67
2021/03/10 02:49:10;;;;;;;13.50;8.60;;;1.70;91.30;;;;;;5093860;28;20527;-67
2021/03/10 02:51:39;;;;;;;13.27;9.02;;;1.60;92.40;;;;;;5093570;28;20401;-66
2021/03/10 02:54:05;;;;;;;11.35;8.80;;;1.60;91.50;;;;;;5093699;28;20224;-67
2021/03/10 02:56:31;;;;;;;15.02;10.18;;;1.60;91.90;;;;;;5093486;28;20169;-70
2021/03/10 02:58:57;;;;;;;16.20;10.47;;;1.40;93.30;;;;;;5093660;28;20204;-66
2021/03/10 03:01:22;;;;;;;16.33;10.50;;;1.50;93.40;;;;;;5092208;28;20177;-66
2021/03/10 03:03:48;;;;;;;15.13;12.27;;;1.50;93.60;;;;;;5093381;28;20545;-68
2021/03/10 03:06:13;;;;;;;12.93;9.70;;;1.40;95.30;;;;;;5092217;28;20180;-67
2021/03/10 03:08:39;;;;;;;16.33;10.40;;;1.50;95.50;;;;;;5093425;28;20719;-67
2021/03/10 03:11:06;;;;;;;15.20;10.13;;;1.40;95.20;;;;;;5093439;28;20226;-68
2021/03/10 03:13:33;;;;;;;13.18;9.48;;;1.30;95.60;;;;;;5093323;28;20597;-67
2021/03/10 03:16:01;;;;;;;13.73;10.00;;;1.30;95.60;;;;;;5093358;28;20173;-68
2021/03/10 03:18:28;;;;;;;14.35;10.32;;;1.40;96.30;;;;;;5091919;28;20261;-66
2021/03/10 03:20:54;;;;;;;17.60;10.32;;;1.40;96.90;;;;;;5093349;28;20172;-68
2021/03/10 03:23:22;;;;;;;11.75;10.27;;;1.40;97.50;;;;;;5091881;28;20738;-68
2021/03/10 03:25:49;;;;;;;13.65;10.10;;;1.40;96.90;;;;;;5096108;28;20172;-66
2021/03/10 03:28:19;;;;;;;15.70;10.85;;;1.40;97.60;;;;;;5096975;28;20677;-67
2021/03/10 03:30:46;;;;;;;14.18;10.45;;;1.40;97.30;;;;;;5096907;28;20625;-67
2021/03/10 03:33:17;;;;;;;14.07;10.27;;;1.20;96.70;;;;;;5096834;28;20663;-67
2021/03/10 03:35:45;;;;;;;13.50;9.85;;;1.40;99.70;;;;;;5096851;28;20168;-66
2021/03/10 03:38:11;;;;;;;16.33;10.98;;;1.40;98.10;;;;;;5096744;28;20601;-66
2021/03/10 03:40:37;;;;;;;14.73;9.80;;;1.40;99.00;;;;;;5096432;28;20220;-67
2021/03/10 03:43:07;;;;;;;14.00;11.02;;;1.40;99.50;;;;;;5096460;28;20299;-66
2021/03/10 03:45:34;;;;;;;18.30;12.32;;;1.50;99.30;;;;;;5096593;28;20168;-68
2021/03/10 03:47:59;;;;;;;16.23;12.02;;;1.40;99.90;;;;;;5096424;28;20192;-66
2021/03/10 03:50:27;;;;;;;12.37;9.97;;;1.30;99.90;;;;;;5096540;28;20658;-67
2021/03/10 03:52:53;;;;;;;16.67;10.60;;;1.20;99.50;;;;;;5095111;28;20553;-68
2021/03/10 03:55:19;;;;;;;11.80;9.43;;;1.20;99.70;;;;;;5096955;28;20197;-67
2021/03/10 03:57:45;;;;;;;20.02;11.43;;;1.00;99.30;;;;;;5096298;28;20540;-66
2021/03/10 04:00:15;;;;;;;17.43;11.10;;;1.00;99.20;;;;;;5096311;28;20177;-68
2021/03/10 04:02:41;;;;;;;17.52;10.82;;;1.00;99.50;;;;;;5096570;28;20769;-67
2021/03/10 04:05:07;;;;;;;14.60;10.47;;;1.00;99.80;;;;;;5096758;28;20189;-66
2021/03/10 04:07:44;;;;;;;18.02;11.00;;;1.00;99.90;;;;;;5094773;28;20172;-67
2021/03/10 04:10:11;;;;;;;18.27;11.73;;;0.90;98.90;;;;;;5095176;28;20638;-68
2021/03/10 04:12:36;;;;;;;17.75;11.23;;;1.00;98.90;;;;;;5095965;28;20604;-67
2021/03/10 04:15:02;;;;;;;16.63;11.30;;;0.90;99.50;;;;;;5096588;28;20208;-66
2021/03/10 04:17:28;;;;;;;16.13;11.45;;;1.00;99.90;;;;;;5095937;28;20191;-68
2021/03/10 04:19:53;;;;;;;16.03;11.50;;;1.00;99.90;;;;;;5096302;28;20224;-66
2021/03/10 04:22:19;;;;;;;18.93;11.90;;;1.00;99.80;;;;;;5094551;28;20537;-68
2021/03/10 04:24:44;;;;;;;18.10;11.07;;;0.90;99.90;;;;;;5096221;28;20265;-66
2021/03/10 04:27:10;;;;;;;19.70;12.33;;;1.00;99.90;;;;;;5095910;28;20165;-67
2021/03/10 04:29:36;;;;;;;20.15;13.32;;;1.10;99.90;;;;;;5096065;28;20235;-66
2021/03/10 04:32:01;;;;;;;29.53;20.40;;;1.00;99.90;;;;;;5095877;28;20196;-68
2021/03/10 04:34:27;;;;;;;49.03;31.93;;;1.00;99.90;;;;;;5094461;28;20214;-67
2021/03/10 04:36:52;;;;;;;69.33;49.47;;;0.90;99.90;;;;;;5094810;28;20247;-68
2021/03/10 04:39:18;;;;;;;46.07;38.23;;;1.00;99.90;;;;;;5094184;28;20295;-66
2021/03/10 04:41:44;;;;;;;54.30;34.60;;;1.10;99.90;;;;;;5094252;28;20232;-68
2021/03/10 04:44:09;;;;;;;40.20;26.50;;;1.20;99.90;;;;;;5095734;28;20669;-66
2021/03/10 04:46:35;;;;;;;31.93;23.23;;;1.30;99.90;;;;;;5094229;28;20641;-67
2021/03/10 04:49:01;;;;;;;27.30;18.60;;;1.30;99.90;;;;;;5095590;28;20583;-66
2021/03/10 04:51:26;;;;;;;39.87;24.83;;;1.40;99.10;;;;;;5095400;28;20429;-67
2021/03/10 04:53:52;;;;;;;36.07;24.33;;;1.30;99.30;;;;;;5095545;28;20200;-68
2021/03/10 04:56:17;;;;;;;24.07;15.57;;;1.30;99.80;;;;;;5095301;28;20176;-67
2021/03/10 04:58:43;;;;;;;18.00;13.07;;;1.30;99.90;;;;;;5095240;28;20197;-67
2021/03/10 05:01:09;;;;;;;25.13;14.17;;;1.20;99.90;;;;;;5093884;28;20180;-68
2021/03/10 05:03:34;;;;;;;18.77;12.10;;;1.30;99.90;;;;;;5095107;28;20311;-67
2021/03/10 05:06:00;;;;;;;16.03;10.90;;;1.30;99.90;;;;;;5095213;28;20172;-68
2021/03/10 05:08:25;;;;;;;17.13;11.57;;;1.30;99.90;;;;;;5095027;28;20633;-67
2021/03/10 05:10:51;;;;;;;16.60;12.27;;;1.20;99.90;;;;;;5094962;28;20687;-66
2021/03/10 05:13:16;;;;;;;18.33;11.73;;;1.30;99.90;;;;;;5094976;28;20192;-66
2021/03/10 05:15:42;;;;;;;17.47;11.40;;;1.30;99.90;;;;;;5094898;28;20171;-67
2021/03/10 05:18:07;;;;;;;18.30;12.20;;;1.10;99.90;;;;;;5094931;28;20188;-66
2021/03/10 05:20:33;;;;;;;16.63;10.73;;;1.10;99.90;;;;;;5094749;28;20179;-67
2021/03/10 05:22:59;;;;;;;18.00;11.60;;;1.30;99.90;;;;;;5094471;28;20208;-70
2021/03/10 05:25:24;;;;;;;17.73;10.90;;;1.20;99.90;;;;;;5094826;28;20213;-67
2021/03/10 05:27:50;;;;;;;19.60;11.33;;;1.40;99.90;;;;;;5094386;28;20551;-67
2021/03/10 05:30:16;;;;;;;23.40;16.33;;;2.80;98.10;;;;;;5093620;28;20188;-66
2021/03/10 05:32:42;;;;;;;28.05;19.95;;;3.60;95.60;;;;;;5094506;28;20199;-67
2021/03/10 05:35:08;;;;;;;30.57;23.70;;;4.20;94.00;;;;;;5095160;28;20212;-65
2021/03/10 05:37:34;;;;;;;25.65;19.42;;;4.50;92.90;;;;;;5094327;28;20204;-65
2021/03/10 05:39:59;;;;;;;22.40;14.13;;;4.80;91.90;;;;;;5089629;28;20215;-65
2021/03/10 05:42:25;;;;;;;27.57;16.67;;;4.90;91.20;;;;;;5087061;28;20165;-67
2021/03/10 05:44:51;;;;;;;41.43;23.57;;;5.10;90.70;;;;;;5073601;28;20299;-66
2021/03/10 05:47:20;;;;;;;45.30;27.10;;;5.20;90.30;;;;;;5074595;28;20508;-66
2021/03/10 05:49:47;;;;;;;36.10;23.70;;;5.30;90.10;;;;;;5074322;28;20662;-66
2021/03/10 05:52:13;;;;;;;31.15;21.50;;;5.40;89.80;;;;;;5072665;28;20177;-66
2021/03/10 05:54:41;;;;;;;26.03;16.23;;;5.50;89.50;;;;;;5073797;28;20208;-66
2021/03/10 05:57:08;;;;;;;22.08;14.52;;;3.60;90.00;;;;;;5079829;28;21091;-68
2021/03/10 05:59:33;;;;;;;20.25;13.45;;;2.70;91.90;;;;;;5092569;28;20244;-68
2021/03/10 06:01:59;;;;;;;22.63;13.67;;;2.30;93.10;;;;;;5092814;28;20243;-66
2021/03/10 06:04:24;;;;;;;23.83;14.13;;;2.10;94.00;;;;;;5082628;28;20227;-66
2021/03/10 06:06:51;;;;;;;15.17;11.37;;;1.70;95.00;;;;;;5092950;28;20544;-67
2021/03/10 06:09:20;;;;;;;18.92;12.40;;;1.60;96.80;;;;;;5085410;28;20457;-67
2021/03/10 06:12:03;;;;;;;18.83;11.95;;;1.50;96.80;;;;;;5080348;28;20234;-66
2021/03/10 06:14:29;;;;;;;19.48;12.82;;;1.50;96.70;;;;;;5093684;28;20205;-68
2021/03/10 06:17:09;;;;;;;18.98;12.30;;;1.50;97.30;;;;;;5083055;28;20642;-67
2021/03/10 06:19:49;;;;;;;18.73;12.05;;;1.60;96.90;;;;;;5092685;28;20204;-67
2021/03/10 06:22:16;;;;;;;20.88;12.48;;;1.60;97.30;;;;;;5081966;28;20262;-68
2021/03/10 06:24:43;;;;;;;14.07;11.27;;;1.70;97.40;;;;;;5072349;28;20263;-67
2021/03/10 06:27:09;;;;;;;20.27;12.52;;;1.70;96.70;;;;;;5085725;28;20187;-66
2021/03/10 06:29:35;;;;;;;20.23;12.35;;;1.80;97.40;;;;;;5092278;28;20661;-66
2021/03/10 06:32:09;;;;;;;13.82;10.80;;;1.90;97.70;;;;;;5093453;28;20637;-68
2021/03/10 06:34:44;;;;;;;20.08;12.50;;;2.00;97.70;;;;;;5085081;28;20209;-67
2021/03/10 06:37:11;;;;;;;18.38;12.43;;;2.10;97.60;;;;;;5073041;28;20214;-67
2021/03/10 06:39:36;;;;;;;16.88;13.07;;;2.20;97.20;;;;;;5085094;28;20197;-66
2021/03/10 06:42:12;;;;;;;19.30;12.20;;;2.20;97.00;;;;;;5092046;28;20666;-68
2021/03/10 06:44:49;;;;;;;34.08;18.70;;;2.20;96.30;;;;;;5091042;28;20230;-67
2021/03/10 06:47:14;;;;;;;34.55;19.60;;;2.30;97.10;;;;;;5089248;28;20176;-66
2021/03/10 06:49:49;;;;;;;44.00;24.50;;;2.40;97.10;;;;;;5081400;28;20732;-68
2021/03/10 06:52:15;;;;;;;23.50;16.95;;;2.50;96.30;;;;;;5072824;28;20189;-67
2021/03/10 06:54:52;;;;;;;22.00;14.93;;;2.60;96.00;;;;;;5071574;28;20236;-67
2021/03/10 06:57:18;;;;;;;30.45;20.17;;;2.60;96.10;;;;;;5078664;28;20575;-67
2021/03/10 06:59:55;;;;;;;26.43;17.50;;;3.00;95.60;;;;;;5074882;28;20208;-66
2021/03/10 07:02:31;;;;;;;15.60;10.85;;;3.00;93.80;;;;;;5082569;28;20183;-66
2021/03/10 07:04:58;;;;;;;16.92;10.52;;;3.20;93.60;;;;;;5094410;28;20211;-67
2021/03/10 07:07:25;;;;;;;16.90;11.00;;;3.30;94.20;;;;;;5096849;28;20203;-68
2021/03/10 07:09:52;;;;;;;12.52;9.70;;;3.40;93.60;;;;;;5094203;28;20693;-65
2021/03/10 07:12:20;;;;;;;12.50;10.25;;;3.40;92.30;;;;;;5096932;28;20199;-66
2021/03/10 07:14:47;;;;;;;12.70;9.80;;;3.60;92.50;;;;;;5097036;28;20291;-67
2021/03/10 07:17:15;;;;;;;15.73;10.52;;;3.90;92.00;;;;;;5092654;28;20165;-67
2021/03/10 07:19:44;;;;;;;14.68;9.00;;;3.90;90.50;;;;;;5076982;28;20607;-67
2021/03/10 07:22:10;;;;;;;12.52;9.35;;;3.90;90.60;;;;;;5096778;28;20208;-67
2021/03/10 07:24:38;;;;;;;12.23;9.43;;;4.10;90.80;;;;;;5096790;28;20262;-67
2021/03/10 07:27:06;;;;;;;11.80;9.13;;;4.10;90.40;;;;;;5096187;28;20669;-68
2021/03/10 07:29:40;;;;;;;13.57;9.27;;;4.20;89.20;;;;;;5096154;28;20205;-67
2021/03/10 07:32:07;;;;;;;11.65;9.23;;;4.30;88.60;;;;;;5098059;28;20221;-68
2021/03/10 07:34:34;;;;;;;14.13;10.25;;;4.50;88.50;;;;;;5096773;28;20753;-67
2021/03/10 07:37:17;;;;;;;14.40;9.85;;;4.60;88.00;;;;;;5083955;28;20172;-67
2021/03/10 07:39:43;;;;;;;12.13;9.07;;;4.90;86.80;;;;;;5092112;28;20223;-66
2021/03/10 07:42:11;;;;;;;11.77;8.80;;;5.00;85.80;;;;;;5094748;28;20241;-67
2021/03/10 07:44:36;;;;;;;11.70;8.70;;;5.00;83.80;;;;;;5095059;28;20306;-66
2021/03/10 07:47:07;;;;;;;14.33;8.80;;;5.10;84.20;;;;;;5095998;28;20201;-68
2021/03/10 07:49:33;;;;;;;12.00;8.55;;;5.30;82.10;;;;;;5102218;28;20211;-66
2021/03/10 07:52:10;;;;;;;10.80;8.82;;;5.50;81.40;;;;;;5091920;28;20548;-66
2021/03/10 07:54:38;;;;;;;9.10;7.25;;;5.80;82.50;;;;;;5096557;28;20555;-66
2021/03/10 07:57:14;;;;;;;13.02;9.10;;;6.00;79.00;;;;;;5095602;28;20195;-68
2021/03/10 07:59:53;;;;;;;8.57;7.35;;;6.10;79.20;;;;;;5088487;28;20212;-68
2021/03/10 08:02:19;;;;;;;12.48;8.45;;;5.90;77.60;;;;;;5093397;28;20176;-66
2021/03/10 08:05:00;;;;;;;9.60;7.40;;;6.00;76.00;;;;;;5096317;28;20308;-67
2021/03/10 08:07:29;;;;;;;13.63;8.70;;;6.20;77.40;;;;;;5078588;28;20638;-66
2021/03/10 08:09:56;;;;;;;10.73;8.75;;;6.40;77.90;;;;;;5090068;28;20206;-66
2021/03/10 08:12:54;;;;;;;10.00;7.60;;;6.70;77.50;;;;;;5095452;28;20263;-68
2021/03/10 08:15:21;;;;;;;14.93;9.88;;;6.80;75.60;;;;;;5081693;28;20229;-69
2021/03/10 08:17:47;;;;;;;9.48;7.38;;;7.00;74.30;;;;;;5095874;28;20621;-67
2021/03/10 08:20:13;;;;;;;9.35;8.10;;;7.00;72.50;;;;;;5095908;28;20187;-70
2021/03/10 08:22:39;;;;;;;11.13;8.50;;;7.30;72.60;;;;;;5094556;28;20183;-68
2021/03/10 08:25:06;;;;;;;10.30;8.63;;;7.50;72.10;;;;;;5087534;28;20185;-69
2021/03/10 08:27:43;;;;;;;11.75;8.30;;;7.80;70.00;;;;;;5095784;28;20169;-68
2021/03/10 08:30:14;;;;;;;12.10;8.35;;;8.10;70.30;;;;;;5093644;28;20184;-70
2021/03/10 08:32:40;;;;;;;8.73;7.60;;;8.30;67.50;;;;;;5095571;28;20254;-70
2021/03/10 08:35:23;;;;;;;11.63;7.30;;;8.90;68.40;;;;;;5095750;28;20219;-71
2021/03/10 08:37:54;;;;;;;8.63;7.72;;;9.00;65.50;;;;;;5094228;28;20267;-68
2021/03/10 08:40:25;;;;;;;9.95;8.95;;;8.90;65.40;;;;;;5090430;28;20239;-68
2021/03/10 08:42:50;;;;;;;9.60;7.57;;;9.00;64.70;;;;;;5075274;28;20192;-69
2021/03/10 08:45:27;;;;;;;8.33;7.43;;;9.60;63.50;;;;;;5095225;28;20195;-68
2021/03/10 08:48:06;;;;;;;10.75;8.93;;;9.60;62.50;;;;;;5093962;28;20207;-70
2021/03/10 08:50:40;;;;;;;9.67;8.27;;;9.90;62.10;;;;;;5099314;28;20181;-71
2021/03/10 08:53:08;;;;;;;8.67;7.87;;;10.00;59.40;;;;;;5091809;28;20811;-71
2021/03/10 08:55:34;;;;;;;10.20;8.87;;;10.10;59.00;;;;;;5093518;28;20871;-70
2021/03/10 08:58:07;;;;;;;9.13;8.13;;;9.80;58.50;;;;;;5093511;28;20437;-71
2021/03/10 09:00:33;;;;;;;11.37;8.73;;;10.70;58.90;;;;;;5086057;28;20180;-71
2021/03/10 09:03:13;;;;;;;11.47;8.17;;;10.40;56.60;;;;;;5081466;28;20556;-68
2021/03/10 09:05:40;;;;;;;19.67;17.77;;;10.10;56.20;;;;;;5092367;28;20929;-71
2021/03/10 09:08:07;;;;;;;9.83;8.80;;;10.60;59.20;;;;;;5077162;28;20452;-69
2021/03/10 09:10:34;;;;;;;9.40;8.43;;;11.10;58.30;;;;;;5072237;28;20410;-69
2021/03/10 09:13:00;;;;;;;10.67;8.40;;;10.90;57.50;;;;;;5086995;28;20774;-69
2021/03/10 09:15:28;;;;;;;10.27;8.47;;;10.50;57.20;;;;;;5090515;28;20432;-71
2021/03/10 09:18:02;;;;;;;10.10;9.10;;;10.60;57.60;;;;;;5079745;28;20471;-71
2021/03/10 09:20:31;;;;;;;10.17;8.87;;;11.30;58.60;;;;;;5091472;28;20431;-69
2021/03/10 09:22:58;;;;;;;12.17;10.60;;;11.60;57.70;;;;;;5089421;28;20469;-70
2021/03/10 09:25:29;;;;;;;13.90;11.37;;;11.00;57.40;;;;;;5091957;28;20417;-71
2021/03/10 09:28:10;;;;;;;11.30;10.10;;;10.60;56.70;;;;;;5088426;28;20448;-71
2021/03/10 09:30:46;;;;;;;12.80;8.97;;;10.30;56.10;;;;;;5087778;28;20439;-71
2021/03/10 09:33:20;;;;;;;11.53;10.33;;;10.20;57.20;;;;;;5090695;28;20431;-70
2021/03/10 09:35:57;;;;;;;11.27;8.60;;;9.70;58.30;;;;;;5091386;28;20843;-70
2021/03/10 09:38:28;;;;;;;13.13;9.23;;;9.80;57.90;;;;;;5093448;28;20456;-68
2021/03/10 09:40:59;;;;;;;13.00;10.67;;;9.70;58.90;;;;;;5092104;28;20476;-68
2021/03/10 09:43:26;;;;;;;12.50;9.50;;;9.70;59.30;;;;;;5091954;28;20484;-70
2021/03/10 09:46:01;;;;;;;11.63;10.43;;;9.50;59.20;;;;;;5078595;28;20428;-68
2021/03/10 09:48:31;;;;;;;12.47;9.97;;;9.70;58.60;;;;;;5084447;28;20464;-68
2021/03/10 09:51:16;;;;;;;11.00;9.67;;;9.60;58.00;;;;;;5092904;28;20775;-70
2021/03/10 09:53:50;;;;;;;11.80;9.97;;;10.00;57.90;;;;;;5086109;28;20446;-68
2021/03/10 09:56:18;;;;;;;12.67;9.27;;;10.10;59.80;;;;;;5085528;28;20409;-70
2021/03/10 09:58:52;;;;;;;15.70;10.93;;;10.10;56.40;;;;;;5091248;28;20473;-68
2021/03/10 10:01:18;;;;;;;11.83;10.67;;;9.80;57.40;;;;;;5091883;28;20462;-69
2021/03/10 10:03:44;;;;;;;12.07;10.30;;;9.90;57.80;;;;;;5092903;28;20488;-69
2021/03/10 10:06:12;;;;;;;13.70;11.13;;;9.50;58.20;;;;;;5090454;28;20417;-70
2021/03/10 10:08:38;;;;;;;15.43;13.03;;;9.60;57.30;;;;;;5091787;28;20539;-69
2021/03/10 10:11:07;;;;;;;15.85;12.50;;;9.50;58.00;;;;;;5091222;28;20408;-70
2021/03/10 10:13:33;;;;;;;14.85;11.48;;;10.00;57.90;;;;;;5091680;28;20269;-69
2021/03/10 10:15:58;;;;;;;13.93;12.40;;;10.40;59.40;;;;;;5090022;28;20582;-69
2021/03/10 10:18:24;;;;;;;17.70;13.90;;;10.50;58.70;;;;;;5090993;28;20205;-69
2021/03/10 10:20:50;;;;;;;20.03;16.70;;;10.70;58.90;;;;;;5089469;28;20185;-69
2021/03/10 10:23:16;;;;;;;18.30;13.73;;;10.90;58.00;;;;;;5088593;28;20461;-70
2021/03/10 10:25:42;;;;;;;13.73;11.67;;;11.10;57.80;;;;;;5088614;28;21078;-69
2021/03/10 10:28:08;;;;;;;17.57;11.03;;;11.30;57.00;;;;;;5089595;28;20421;-69
2021/03/10 10:30:33;;;;;;;16.60;12.37;;;11.20;56.60;;;;;;5092114;28;20172;-69
2021/03/10 10:32:59;;;;;;;14.77;11.40;;;10.80;56.50;;;;;;5092563;28;20440;-70
2021/03/10 10:35:24;;;;;;;20.43;15.20;;;11.00;58.00;;;;;;5095175;28;20199;-69
2021/03/10 10:37:50;;;;;;;16.43;12.67;;;10.90;57.70;;;;;;5093456;28;20638;-69
2021/03/10 10:40:18;;;;;;;16.00;14.03;;;10.90;56.90;;;;;;5095596;28;20307;-70
2021/03/10 10:42:51;;;;;;;12.70;11.03;;;10.60;57.10;;;;;;5094807;28;20180;-69
2021/03/10 10:45:17;;;;;;;16.40;14.13;;;10.40;57.60;;;;;;5076753;28;20558;-68
2021/03/10 10:47:44;;;;;;;17.90;12.73;;;10.50;58.90;;;;;;5093950;28;20436;-70
2021/03/10 10:50:12;;;;;;;16.20;11.60;;;11.00;58.10;;;;;;5086879;28;20432;-71
2021/03/10 10:52:38;;;;;;;20.30;13.10;;;11.10;58.00;;;;;;5096203;28;20416;-67
2021/03/10 10:55:08;;;;;;;13.10;11.80;;;11.30;57.50;;;;;;5095620;28;20523;-70
2021/03/10 10:57:34;;;;;;;16.60;13.60;;;11.20;57.20;;;;;;5093811;28;20420;-67
2021/03/10 10:59:59;;;;;;;19.57;15.53;;;11.00;57.40;;;;;;5094992;28;20945;-69
2021/03/10 11:02:25;;;;;;;16.93;15.10;;;10.80;57.10;;;;;;5095753;28;20196;-68
2021/03/10 11:04:51;;;;;;;17.60;15.77;;;10.40;57.70;;;;;;5093907;28;20227;-69
2021/03/10 11:07:16;;;;;;;17.10;14.07;;;10.30;57.20;;;;;;5094454;28;20553;-69
2021/03/10 11:09:42;;;;;;;16.50;13.73;;;10.20;57.40;;;;;;5091987;28;20630;-68
2021/03/10 11:12:11;;;;;;;16.30;12.57;;;10.10;57.60;;;;;;5092662;28;20188;-70
2021/03/10 11:14:41;;;;;;;17.13;12.93;;;10.00;57.30;;;;;;5094725;28;20279;-68
2021/03/10 11:17:07;;;;;;;13.75;11.68;;;10.30;58.90;;;;;;5094192;28;20208;-70
2021/03/10 11:19:33;;;;;;;15.40;13.35;;;10.40;58.00;;;;;;5094334;28;20273;-69
2021/03/10 11:21:58;;;;;;;16.10;12.90;;;10.30;56.90;;;;;;5093994;28;20173;-69
2021/03/10 11:24:24;;;;;;;17.47;13.23;;;10.10;57.40;;;;;;5093053;28;20476;-69
2021/03/10 11:26:50;;;;;;;14.50;13.00;;;10.30;57.90;;;;;;5092174;28;20172;-70
2021/03/10 11:29:17;;;;;;;17.03;12.87;;;10.30;57.60;;;;;;5094555;28;20666;-68
2021/03/10 11:31:44;;;;;;;15.65;12.85;;;10.40;57.00;;;;;;5096203;28;20173;-69
2021/03/10 11:34:10;;;;;;;16.52;13.48;;;10.50;57.00;;;;;;5095015;28;20287;-69
2021/03/10 11:36:36;;;;;;;15.07;12.30;;;10.40;57.90;;;;;;5095798;28;20264;-70
2021/03/10 11:39:02;;;;;;;17.57;14.00;;;10.60;58.10;;;;;;5096317;28;20786;-69
2021/03/10 11:41:27;;;;;;;15.60;12.65;;;10.40;57.50;;;;;;5094467;28;20227;-68
2021/03/10 11:43:53;;;;;;;13.53;11.93;;;10.30;57.60;;;;;;5095075;28;20228;-69
2021/03/10 11:46:18;;;;;;;16.77;13.00;;;10.40;57.90;;;;;;5095351;28;20243;-69
2021/03/10 11:48:44;;;;;;;15.30;12.77;;;10.30;56.80;;;;;;5095789;28;20245;-68
2021/03/10 11:51:09;;;;;;;17.73;13.20;;;10.20;57.90;;;;;;5094558;28;20176;-70
2021/03/10 11:53:35;;;;;;;17.53;15.70;;;10.00;57.60;;;;;;5095594;28;20200;-68
2021/03/10 11:56:01;;;;;;;14.27;12.23;;;10.20;58.30;;;;;;5084570;28;20180;-67
2021/03/10 11:58:27;;;;;;;18.23;13.80;;;10.10;57.00;;;;;;5092506;28;20445;-67
2021/03/10 12:00:56;;;;;;;17.00;13.07;;;9.70;57.30;;;;;;5094917;28;20730;-69
2021/03/10 12:03:21;;;;;;;14.13;12.57;;;10.10;57.20;;;;;;5093931;28;20484;-67
2021/03/10 12:05:47;;;;;;;15.43;11.90;;;10.30;57.20;;;;;;5093198;28;20207;-68
2021/03/10 12:08:13;;;;;;;15.38;12.90;;;10.30;56.20;;;;;;5094143;28;20200;-67
2021/03/10 12:10:40;;;;;;;14.33;11.77;;;10.60;57.40;;;;;;5092024;28;20176;-70
2021/03/10 12:13:08;;;;;;;13.77;11.38;;;10.60;56.00;;;;;;5091973;28;20452;-67
2021/03/10 12:15:33;;;;;;;14.75;12.73;;;11.10;57.20;;;;;;5094074;28;20207;-67
2021/03/10 12:17:59;;;;;;;14.73;13.13;;;11.30;56.20;;;;;;5101201;28;20199;-70
2021/03/10 12:20:25;;;;;;;15.60;13.20;;;11.30;55.80;;;;;;5099575;28;20245;-68
2021/03/10 12:22:51;;;;;;;14.43;11.70;;;11.00;55.60;;;;;;5088580;28;20424;-67
2021/03/10 12:25:16;;;;;;;15.37;13.17;;;10.80;55.50;;;;;;5090890;28;20223;-67
2021/03/10 12:27:42;;;;;;;17.27;13.23;;;10.50;55.70;;;;;;5089669;28;20176;-67
2021/03/10 12:30:08;;;;;;;13.90;12.50;;;10.60;56.40;;;;;;5093048;28;20191;-67
2021/03/10 12:32:35;;;;;;;16.92;12.32;;;10.40;55.80;;;;;;5093422;28;20183;-67
2021/03/10 12:35:01;;;;;;;15.05;12.60;;;10.30;57.30;;;;;;5092959;28;20193;-67
2021/03/10 12:37:27;;;;;;;15.55;12.32;;;10.10;56.60;;;;;;5093045;28;20660;-67
2021/03/10 12:39:53;;;;;;;13.77;10.83;;;10.10;57.60;;;;;;5086707;28;20204;-66
2021/03/10 12:42:19;;;;;;;16.48;12.20;;;10.20;57.60;;;;;;5090995;28;20169;-67
2021/03/10 12:44:45;;;;;;;13.30;11.93;;;10.20;56.80;;;;;;5091421;28;20228;-67